Terminal Aerodrome Forecast
Issued by NWS Indianapolis, IN

Home | Current Version | Previous Version | Text Only | Print | Product List | Glossary On
Versions: 1 2 3 4 5 6 7 8 9 10 11 12 13 14 15 16 17 18 19 20 21 22 23 24
000
FTUS43 KIND 250525
TAFIND
TAF
KIND 250525Z 2506/2612 15007KT P6SM BKN100
     FM251500 16010G22KT P6SM VCSH OVC080
     FM251800 18012G23KT P6SM -SHRA VCTS OVC070CB
     FM252100 16010G19KT 5SM -SHRA VCTS OVC050CB
     FM260000 15008KT P6SM -SHRA OVC045
     FM260600 15008KT 2SM -SHRA OVC008=

USA.gov is the U.S. government's official web portal to all federal, state and local government web resources and services.